sensor_id;sensor_type;location;lat;lon;timestamp;pressure;altitude;pressure_sealevel;temperature;humidity
54592;BME280;40488;48.558;18.150;2022-09-28T00:01:54;98211.16;;;8.91;86.54
54592;BME280;40488;48.558;18.150;2022-09-28T00:04:23;98217.19;;;8.86;86.71
54592;BME280;40488;48.558;18.150;2022-09-28T00:06:53;98209.84;;;8.69;86.50
54592;BME280;40488;48.558;18.150;2022-09-28T00:09:22;98220.34;;;8.51;85.97
54592;BME280;40488;48.558;18.150;2022-09-28T00:11:51;98223.84;;;8.44;85.93
54592;BME280;40488;48.558;18.150;2022-09-28T00:14:20;98231.53;;;8.38;85.89
54592;BME280;40488;48.558;18.150;2022-09-28T00:16:49;98237.53;;;8.34;86.12
54592;BME280;40488;48.558;18.150;2022-09-28T00:19:17;98224.75;;;8.38;86.05
54592;BME280;40488;48.558;18.150;2022-09-28T00:21:46;98222.25;;;8.37;85.83
54592;BME280;40488;48.558;18.150;2022-09-28T00:24:17;98216.31;;;8.36;85.45
54592;BME280;40488;48.558;18.150;2022-09-28T00:26:54;98217.31;;;8.25;86.12
54592;BME280;40488;48.558;18.150;2022-09-28T00:29:25;98220.53;;;8.39;86.21
54592;BME280;40488;48.558;18.150;2022-09-28T00:31:56;98210.69;;;8.15;86.13
54592;BME280;40488;48.558;18.150;2022-09-28T00:34:27;98222.75;;;8.00;85.91
54592;BME280;40488;48.558;18.150;2022-09-28T00:36:59;98221.13;;;7.96;86.35
54592;BME280;40488;48.558;18.150;2022-09-28T00:39:29;98230.47;;;7.93;86.77
54592;BME280;40488;48.558;18.150;2022-09-28T00:41:58;98225.25;;;8.03;86.11
54592;BME280;40488;48.558;18.150;2022-09-28T00:44:37;98223.47;;;8.10;87.14
54592;BME280;40488;48.558;18.150;2022-09-28T00:47:20;98217.50;;;8.13;86.68
54592;BME280;40488;48.558;18.150;2022-09-28T00:49:56;98217.63;;;8.05;85.98
54592;BME280;40488;48.558;18.150;2022-09-28T00:52:30;98215.22;;;7.94;86.66
54592;BME280;40488;48.558;18.150;2022-09-28T00:55:03;98216.94;;;7.94;87.09
54592;BME280;40488;48.558;18.150;2022-09-28T00:57:35;98215.28;;;7.91;86.19
54592;BME280;40488;48.558;18.150;2022-09-28T01:00:06;98222.84;;;7.94;86.63
54592;BME280;40488;48.558;18.150;2022-09-28T01:02:36;98218.56;;;7.98;86.57
54592;BME280;40488;48.558;18.150;2022-09-28T01:05:06;98217.81;;;7.91;86.77
54592;BME280;40488;48.558;18.150;2022-09-28T01:07:37;98230.53;;;7.88;86.27
54592;BME280;40488;48.558;18.150;2022-09-28T01:10:08;98227.22;;;7.83;86.71
54592;BME280;40488;48.558;18.150;2022-09-28T01:12:37;98234.88;;;7.80;87.13
54592;BME280;40488;48.558;18.150;2022-09-28T01:15:07;98246.63;;;7.87;87.27
54592;BME280;40488;48.558;18.150;2022-09-28T01:17:46;98238.19;;;7.85;87.63
54592;BME280;40488;48.558;18.150;2022-09-28T01:20:46;98231.34;;;7.90;87.03
54592;BME280;40488;48.558;18.150;2022-09-28T01:23:42;98226.28;;;7.90;87.87
54592;BME280;40488;48.558;18.150;2022-09-28T01:29:27;98234.09;;;7.77;87.58
54592;BME280;40488;48.558;18.150;2022-09-28T01:32:06;98228.31;;;7.64;86.90
54592;BME280;40488;48.558;18.150;2022-09-28T01:34:42;98226.69;;;7.60;86.89
54592;BME280;40488;48.558;18.150;2022-09-28T01:37:16;98226.63;;;7.63;86.77
54592;BME280;40488;48.558;18.150;2022-09-28T01:39:48;98231.03;;;7.49;86.47
54592;BME280;40488;48.558;18.150;2022-09-28T01:42:22;98242.97;;;7.42;86.61
54592;BME280;40488;48.558;18.150;2022-09-28T01:44:56;98232.00;;;7.39;86.63
54592;BME280;40488;48.558;18.150;2022-09-28T01:47:33;98228.72;;;7.31;86.46
54592;BME280;40488;48.558;18.150;2022-09-28T01:50:09;98227.13;;;7.24;86.55
54592;BME280;40488;48.558;18.150;2022-09-28T01:52:46;98233.13;;;7.15;86.55
54592;BME280;40488;48.558;18.150;2022-09-28T01:55:24;98233.97;;;7.13;86.27
54592;BME280;40488;48.558;18.150;2022-09-28T01:57:59;98235.69;;;7.11;86.13
54592;BME280;40488;48.558;18.150;2022-09-28T02:00:33;98227.22;;;7.15;86.59
54592;BME280;40488;48.558;18.150;2022-09-28T02:03:06;98222.94;;;7.18;86.61
54592;BME280;40488;48.558;18.150;2022-09-28T02:05:50;98221.28;;;7.17;86.46
54592;BME280;40488;48.558;18.150;2022-09-28T02:08:23;98219.50;;;7.22;87.06
54592;BME280;40488;48.558;18.150;2022-09-28T02:11:00;98234.00;;;7.14;86.41
54592;BME280;40488;48.558;18.150;2022-09-28T02:13:32;98232.34;;;7.09;86.30
54592;BME280;40488;48.558;18.150;2022-09-28T02:16:09;98234.91;;;7.06;86.26
54592;BME280;40488;48.558;18.150;2022-09-28T02:18:41;98230.75;;;6.99;85.65
54592;BME280;40488;48.558;18.150;2022-09-28T02:21:17;98247.66;;;7.00;86.49
54592;BME280;40488;48.558;18.150;2022-09-28T02:23:55;98251.00;;;7.05;85.82
54592;BME280;40488;48.558;18.150;2022-09-28T02:26:30;98249.38;;;6.98;86.00
54592;BME280;40488;48.558;18.150;2022-09-28T02:29:00;98254.50;;;6.89;85.40
54592;BME280;40488;48.558;18.150;2022-09-28T02:31:30;98251.22;;;6.81;85.56
54592;BME280;40488;48.558;18.150;2022-09-28T02:33:59;98259.69;;;6.78;85.56
54592;BME280;40488;48.558;18.150;2022-09-28T02:36:28;98263.06;;;6.79;85.92
54592;BME280;40488;48.558;18.150;2022-09-28T02:38:57;98269.88;;;6.77;86.30
54592;BME280;40488;48.558;18.150;2022-09-28T02:41:45;98251.22;;;6.81;86.14
54592;BME280;40488;48.558;18.150;2022-09-28T02:44:43;98263.09;;;6.75;85.39
54592;BME280;40488;48.558;18.150;2022-09-28T02:47:24;98260.53;;;6.77;85.67
54592;BME280;40488;48.558;18.150;2022-09-28T02:50:02;98269.78;;;6.83;85.52
54592;BME280;40488;48.558;18.150;2022-09-28T02:55:41;98282.44;;;6.84;86.24
54592;BME280;40488;48.558;18.150;2022-09-28T02:58:24;98279.94;;;6.83;85.85
54592;BME280;40488;48.558;18.150;2022-09-28T03:01:04;98280.75;;;6.88;86.15
54592;BME280;40488;48.558;18.150;2022-09-28T03:03:44;98275.69;;;6.82;86.17
54592;BME280;40488;48.558;18.150;2022-09-28T03:06:21;98271.50;;;6.79;86.25
54592;BME280;40488;48.558;18.150;2022-09-28T03:08:56;98280.78;;;6.82;86.21
54592;BME280;40488;48.558;18.150;2022-09-28T03:11:35;98275.75;;;6.77;86.20
54592;BME280;40488;48.558;18.150;2022-09-28T03:14:08;98276.59;;;6.78;86.24
54592;BME280;40488;48.558;18.150;2022-09-28T03:16:48;98269.91;;;6.67;86.18
54592;BME280;40488;48.558;18.150;2022-09-28T03:19:26;98269.13;;;6.64;85.89
54592;BME280;40488;48.558;18.150;2022-09-28T03:21:56;98281.81;;;6.59;86.19
54592;BME280;40488;48.558;18.150;2022-09-28T03:24:25;98281.84;;;6.56;86.13
54592;BME280;40488;48.558;18.150;2022-09-28T03:26:54;98281.88;;;6.50;86.13
54592;BME280;40488;48.558;18.150;2022-09-28T03:29:22;98277.66;;;6.48;85.83
54592;BME280;40488;48.558;18.150;2022-09-28T03:31:57;98283.66;;;6.39;86.21
54592;BME280;40488;48.558;18.150;2022-09-28T03:34:28;98276.13;;;6.30;85.54
54592;BME280;40488;48.558;18.150;2022-09-28T03:36:57;98285.38;;;6.31;85.77
54592;BME280;40488;48.558;18.150;2022-09-28T03:39:26;98276.94;;;6.32;86.15
54592;BME280;40488;48.558;18.150;2022-09-28T03:41:54;98280.28;;;6.37;85.80
54592;BME280;40488;48.558;18.150;2022-09-28T03:44:23;98271.88;;;6.35;86.02
54592;BME280;40488;48.558;18.150;2022-09-28T03:46:52;98275.16;;;6.45;86.21
54592;BME280;40488;48.558;18.150;2022-09-28T03:49:20;98276.88;;;6.41;85.70
54592;BME280;40488;48.558;18.150;2022-09-28T03:51:51;98279.44;;;6.37;86.02
54592;BME280;40488;48.558;18.150;2022-09-28T03:54:19;98273.47;;;6.44;86.25
54592;BME280;40488;48.558;18.150;2022-09-28T03:56:48;98265.00;;;6.48;86.12
54592;BME280;40488;48.558;18.150;2022-09-28T03:59:18;98265.91;;;6.42;86.24
54592;BME280;40488;48.558;18.150;2022-09-28T04:01:48;98262.50;;;6.43;86.07
54592;BME280;40488;48.558;18.150;2022-09-28T04:04:16;98265.81;;;6.51;86.23
54592;BME280;40488;48.558;18.150;2022-09-28T04:06:45;98272.56;;;6.57;86.25
54592;BME280;40488;48.558;18.150;2022-09-28T04:09:16;98273.41;;;6.53;86.20
54592;BME280;40488;48.558;18.150;2022-09-28T04:11:46;98263.25;;;6.57;86.58
54592;BME280;40488;48.558;18.150;2022-09-28T04:14:32;98272.50;;;6.61;86.33
54592;BME280;40488;48.558;18.150;2022-09-28T04:17:02;98260.69;;;6.60;86.03
54592;BME280;40488;48.558;18.150;2022-09-28T04:19:31;98259.75;;;6.70;86.07
54592;BME280;40488;48.558;18.150;2022-09-28T04:22:11;98251.22;;;6.81;86.76
54592;BME280;40488;48.558;18.150;2022-09-28T04:24:43;98246.09;;;6.87;86.54
54592;BME280;40488;48.558;18.150;2022-09-28T04:27:12;98241.84;;;6.90;86.68
54592;BME280;40488;48.558;18.150;2022-09-28T04:29:51;98236.81;;;6.86;86.37
54592;BME280;40488;48.558;18.150;2022-09-28T04:32:19;98251.25;;;6.78;86.61
54592;BME280;40488;48.558;18.150;2022-09-28T04:34:50;98252.09;;;6.78;86.40
54592;BME280;40488;48.558;18.150;2022-09-28T04:37:19;98263.13;;;6.71;86.22
54592;BME280;40488;48.558;18.150;2022-09-28T04:39:50;98271.59;;;6.71;86.08
54592;BME280;40488;48.558;18.150;2022-09-28T04:42:19;98275.81;;;6.71;86.23
54592;BME280;40488;48.558;18.150;2022-09-28T04:44:49;98277.47;;;6.73;86.23
54592;BME280;40488;48.558;18.150;2022-09-28T04:47:18;98270.69;;;6.79;86.56
54592;BME280;40488;48.558;18.150;2022-09-28T04:49:57;98274.88;;;6.83;86.47
54592;BME280;40488;48.558;18.150;2022-09-28T04:52:30;98274.78;;;6.89;86.82
54592;BME280;40488;48.558;18.150;2022-09-28T04:55:01;98270.53;;;6.94;86.71
54592;BME280;40488;48.558;18.150;2022-09-28T04:57:30;98265.44;;;6.97;87.24
54592;BME280;40488;48.558;18.150;2022-09-28T05:00:02;98264.53;;;7.04;87.20
54592;BME280;40488;48.558;18.150;2022-09-28T05:02:33;98269.56;;;7.10;86.73
54592;BME280;40488;48.558;18.150;2022-09-28T05:05:13;98265.28;;;7.13;87.42
54592;BME280;40488;48.558;18.150;2022-09-28T05:07:57;98260.97;;;7.20;86.98
54592;BME280;40488;48.558;18.150;2022-09-28T05:10:27;98258.41;;;7.23;86.78
54592;BME280;40488;48.558;18.150;2022-09-28T05:12:56;98274.44;;;7.25;86.54
54592;BME280;40488;48.558;18.150;2022-09-28T05:15:26;98265.97;;;7.29;86.54
54592;BME280;40488;48.558;18.150;2022-09-28T05:17:54;98264.22;;;7.34;86.82
54592;BME280;40488;48.558;18.150;2022-09-28T05:20:33;98245.59;;;7.36;87.43
54592;BME280;40488;48.558;18.150;2022-09-28T05:23:02;98266.53;;;7.52;87.23
54592;BME280;40488;48.558;18.150;2022-09-28T05:25:34;98254.63;;;7.60;87.59
54592;BME280;40488;48.558;18.150;2022-09-28T05:28:21;98255.41;;;7.65;86.90
54592;BME280;40488;48.558;18.150;2022-09-28T05:31:04;98257.03;;;7.69;86.74
54592;BME280;40488;48.558;18.150;2022-09-28T05:33:43;98254.41;;;7.75;87.46
54592;BME280;40488;48.558;18.150;2022-09-28T05:36:12;98261.09;;;7.82;87.11
54592;BME280;40488;48.558;18.150;2022-09-28T05:38:42;98266.91;;;7.90;86.83
54592;BME280;40488;48.558;18.150;2022-09-28T05:41:12;98266.78;;;8.01;86.99
54592;BME280;40488;48.558;18.150;2022-09-28T05:43:41;98259.91;;;8.07;87.75
54592;BME280;40488;48.558;18.150;2022-09-28T05:46:11;98246.44;;;8.02;87.12
54592;BME280;40488;48.558;18.150;2022-09-28T05:48:40;98242.94;;;8.09;87.08
54592;BME280;40488;48.558;18.150;2022-09-28T05:51:09;98241.22;;;8.11;87.06
54592;BME280;40488;48.558;18.150;2022-09-28T05:53:38;98245.41;;;8.16;86.56
54592;BME280;40488;48.558;18.150;2022-09-28T05:56:08;98241.16;;;8.18;86.45
54592;BME280;40488;48.558;18.150;2022-09-28T05:58:43;98246.13;;;8.24;86.84
54592;BME280;40488;48.558;18.150;2022-09-28T06:01:12;98235.78;;;8.39;87.16
54592;BME280;40488;48.558;18.150;2022-09-28T06:03:41;98238.16;;;8.49;86.70
54592;BME280;40488;48.558;18.150;2022-09-28T06:06:10;98238.91;;;8.56;86.50
54592;BME280;40488;48.558;18.150;2022-09-28T06:08:40;98235.44;;;8.60;85.97
54592;BME280;40488;48.558;18.150;2022-09-28T06:11:24;98234.50;;;8.65;86.48
54592;BME280;40488;48.558;18.150;2022-09-28T06:13:56;98233.53;;;8.72;86.32
54592;BME280;40488;48.558;18.150;2022-09-28T06:16:28;98228.31;;;8.80;86.70
54592;BME280;40488;48.558;18.150;2022-09-28T06:18:57;98223.91;;;8.88;86.67
54592;BME280;40488;48.558;18.150;2022-09-28T06:21:35;98214.28;;;9.05;86.84
54592;BME280;40488;48.558;18.150;2022-09-28T06:24:05;98214.25;;;9.08;86.92
54592;BME280;40488;48.558;18.150;2022-09-28T06:26:35;98211.50;;;9.19;86.54
54592;BME280;40488;48.558;18.150;2022-09-28T06:29:07;98212.16;;;9.28;86.01
54592;BME280;40488;48.558;18.150;2022-09-28T06:31:35;98209.44;;;9.37;86.00
54592;BME280;40488;48.558;18.150;2022-09-28T06:34:04;98208.34;;;9.49;86.13
54592;BME280;40488;48.558;18.150;2022-09-28T06:36:33;98207.31;;;9.59;86.46
54592;BME280;40488;48.558;18.150;2022-09-28T06:39:01;98210.50;;;9.67;86.12
54592;BME280;40488;48.558;18.150;2022-09-28T06:41:30;98203.56;;;9.75;85.94
54592;BME280;40488;48.558;18.150;2022-09-28T06:44:11;98194.09;;;9.80;86.58
54592;BME280;40488;48.558;18.150;2022-09-28T06:46:52;98200.69;;;9.89;86.45
54592;BME280;40488;48.558;18.150;2022-09-28T06:49:35;98193.47;;;10.09;86.63
54592;BME280;40488;48.558;18.150;2022-09-28T06:52:15;98190.72;;;10.18;85.66
54592;BME280;40488;48.558;18.150;2022-09-28T06:55:10;98198.25;;;10.24;85.64
54592;BME280;40488;48.558;18.150;2022-09-28T06:57:43;98195.53;;;10.32;85.38
54592;BME280;40488;48.558;18.150;2022-09-28T07:00:14;98185.94;;;10.41;85.02
54592;BME280;40488;48.558;18.150;2022-09-28T07:02:45;98183.88;;;10.55;84.93
54592;BME280;40488;48.558;18.150;2022-09-28T07:05:25;98180.88;;;10.73;84.42
54592;BME280;40488;48.558;18.150;2022-09-28T07:08:16;98178.00;;;10.86;84.31
54592;BME280;40488;48.558;18.150;2022-09-28T07:11:05;98184.47;;;10.99;84.21
54592;BME280;40488;48.558;18.150;2022-09-28T07:13:43;98184.38;;;11.02;83.46
54592;BME280;40488;48.558;18.150;2022-09-28T07:16:22;98199.47;;;11.11;83.84
54592;BME280;40488;48.558;18.150;2022-09-28T07:18:58;98204.22;;;11.23;83.18
54592;BME280;40488;48.558;18.150;2022-09-28T07:21:26;98204.84;;;11.31;82.96
54592;BME280;40488;48.558;18.150;2022-09-28T07:24:01;98196.91;;;11.40;82.85
54592;BME280;40488;48.558;18.150;2022-09-28T07:26:41;98199.00;;;11.57;82.41
54592;BME280;40488;48.558;18.150;2022-09-28T07:29:21;98201.69;;;11.52;81.80
54592;BME280;40488;48.558;18.150;2022-09-28T07:32:02;98215.84;;;11.64;81.68
54592;BME280;40488;48.558;18.150;2022-09-28T07:34:33;98211.47;;;11.67;81.44
54592;BME280;40488;48.558;18.150;2022-09-28T07:37:14;98207.75;;;11.80;81.12
54592;BME280;40488;48.558;18.150;2022-09-28T07:39:46;98212.38;;;11.95;80.85
54592;BME280;40488;48.558;18.150;2022-09-28T07:42:25;98218.84;;;12.07;80.58
54592;BME280;40488;48.558;18.150;2022-09-28T07:44:57;98220.09;;;12.22;80.01
54592;BME280;40488;48.558;18.150;2022-09-28T07:47:27;98225.88;;;12.28;79.52
54592;BME280;40488;48.558;18.150;2022-09-28T07:50:27;98217.69;;;12.45;79.17
54592;BME280;40488;48.558;18.150;2022-09-28T07:53:18;98215.59;;;12.56;78.77
54592;BME280;40488;48.558;18.150;2022-09-28T07:56:01;98205.19;;;12.62;78.07
54592;BME280;40488;48.558;18.150;2022-09-28T07:58:41;98203.09;;;12.73;77.80
54592;BME280;40488;48.558;18.150;2022-09-28T08:01:21;98214.09;;;12.75;77.31
54592;BME280;40488;48.558;18.150;2022-09-28T08:03:52;98216.16;;;12.90;76.92
54592;BME280;40488;48.558;18.150;2022-09-28T08:06:23;98207.28;;;13.00;76.53
54592;BME280;40488;48.558;18.150;2022-09-28T08:08:51;98208.84;;;13.04;75.83
54592;BME280;40488;48.558;18.150;2022-09-28T08:11:34;98201.28;;;13.26;76.00
54592;BME280;40488;48.558;18.150;2022-09-28T08:14:15;98199.13;;;13.38;75.36
54592;BME280;40488;48.558;18.150;2022-09-28T08:16:55;98201.56;;;13.18;74.52
54592;BME280;40488;48.558;18.150;2022-09-28T08:19:35;98201.19;;;13.29;73.54
54592;BME280;40488;48.558;18.150;2022-09-28T08:22:15;98190.22;;;13.49;73.42
54592;BME280;40488;48.558;18.150;2022-09-28T08:24:46;98196.34;;;13.68;73.03
54592;BME280;40488;48.558;18.150;2022-09-28T08:27:15;98197.56;;;13.81;72.85
54592;BME280;40488;48.558;18.150;2022-09-28T08:29:44;98180.38;;;13.83;71.35
54592;BME280;40488;48.558;18.150;2022-09-28T08:32:23;98185.72;;;14.00;71.24
54592;BME280;40488;48.558;18.150;2022-09-28T08:35:04;98184.22;;;14.16;71.08
54592;BME280;40488;48.558;18.150;2022-09-28T08:37:48;98176.69;;;14.35;70.83
54592;BME280;40488;48.558;18.150;2022-09-28T08:40:56;98165.47;;;14.57;70.77
54592;BME280;40488;48.558;18.150;2022-09-28T08:43:56;98172.00;;;14.64;69.82
54592;BME280;40488;48.558;18.150;2022-09-28T08:46:42;98168.56;;;14.65;69.07
54592;BME280;40488;48.558;18.150;2022-09-28T08:49:28;98164.28;;;14.66;67.87
54592;BME280;40488;48.558;18.150;2022-09-28T08:52:20;98164.84;;;14.72;67.02
54592;BME280;40488;48.558;18.150;2022-09-28T08:55:03;98157.78;;;14.77;66.42
54592;BME280;40488;48.558;18.150;2022-09-28T08:57:44;98163.28;;;14.89;65.68
54592;BME280;40488;48.558;18.150;2022-09-28T09:00:20;98178.25;;;14.99;65.73
54592;BME280;40488;48.558;18.150;2022-09-28T09:02:50;98169.91;;;14.94;64.71
54592;BME280;40488;48.558;18.150;2022-09-28T09:05:32;98167.13;;;14.99;63.73
54592;BME280;40488;48.558;18.150;2022-09-28T09:08:21;98159.94;;;15.07;64.31
54592;BME280;40488;48.558;18.150;2022-09-28T09:10:55;98164.69;;;15.16;64.00
54592;BME280;40488;48.558;18.150;2022-09-28T09:16:43;98161.41;;;15.31;63.30
54592;BME280;40488;48.558;18.150;2022-09-28T09:19:33;98160.88;;;15.45;63.27
54592;BME280;40488;48.558;18.150;2022-09-28T09:22:17;98164.63;;;15.56;63.49
54592;BME280;40488;48.558;18.150;2022-09-28T09:24:59;98164.50;;;15.59;63.04
54592;BME280;40488;48.558;18.150;2022-09-28T09:27:41;98151.56;;;15.61;63.33
54592;BME280;40488;48.558;18.150;2022-09-28T09:30:15;98152.59;;;15.75;63.69
54592;BME280;40488;48.558;18.150;2022-09-28T09:33:05;98144.53;;;15.64;63.06
54592;BME280;40488;48.558;18.150;2022-09-28T09:36:14;98139.09;;;15.70;63.96
54592;BME280;40488;48.558;18.150;2022-09-28T09:39:06;98130.31;;;15.74;64.13
54592;BME280;40488;48.558;18.150;2022-09-28T09:42:01;98125.38;;;15.88;64.62
54592;BME280;40488;48.558;18.150;2022-09-28T09:44:56;98114.22;;;16.06;64.51
54592;BME280;40488;48.558;18.150;2022-09-28T09:47:58;98128.31;;;16.17;64.01
54592;BME280;40488;48.558;18.150;2022-09-28T09:50:34;98122.88;;;16.23;63.85
54592;BME280;40488;48.558;18.150;2022-09-28T09:53:12;98115.44;;;16.17;63.85
54592;BME280;40488;48.558;18.150;2022-09-28T09:55:45;98108.75;;;16.13;63.84
54592;BME280;40488;48.558;18.150;2022-09-28T09:58:29;98106.53;;;16.24;63.71
54592;BME280;40488;48.558;18.150;2022-09-28T10:01:16;98107.84;;;15.96;63.61
54592;BME280;40488;48.558;18.150;2022-09-28T10:03:57;98120.13;;;16.08;64.11
54592;BME280;40488;48.558;18.150;2022-09-28T10:06:32;98119.63;;;16.19;65.29
54592;BME280;40488;48.558;18.150;2022-09-28T10:09:05;98105.81;;;16.20;65.45
54592;BME280;40488;48.558;18.150;2022-09-28T10:11:40;98110.75;;;16.25;65.21
54592;BME280;40488;48.558;18.150;2022-09-28T10:14:16;98115.59;;;16.14;65.27
54592;BME280;40488;48.558;18.150;2022-09-28T10:17:01;98114.38;;;16.03;65.15
54592;BME280;40488;48.558;18.150;2022-09-28T10:19:42;98119.94;;;15.94;65.62
54592;BME280;40488;48.558;18.150;2022-09-28T10:22:25;98118.28;;;15.93;66.06
54592;BME280;40488;48.558;18.150;2022-09-28T10:24:58;98106.03;;;15.98;66.21
54592;BME280;40488;48.558;18.150;2022-09-28T10:27:29;98113.13;;;15.93;65.79
54592;BME280;40488;48.558;18.150;2022-09-28T10:30:10;98099.41;;;16.12;66.38
54592;BME280;40488;48.558;18.150;2022-09-28T10:32:42;98097.41;;;15.99;66.24
54592;BME280;40488;48.558;18.150;2022-09-28T10:35:20;98093.16;;;15.98;66.16
54592;BME280;40488;48.558;18.150;2022-09-28T10:37:58;98082.44;;;16.07;66.42
54592;BME280;40488;48.558;18.150;2022-09-28T10:40:53;98084.94;;;16.26;66.31
54592;BME280;40488;48.558;18.150;2022-09-28T10:43:33;98075.66;;;16.58;65.58
54592;BME280;40488;48.558;18.150;2022-09-28T10:46:13;98072.22;;;16.74;64.67
54592;BME280;40488;48.558;18.150;2022-09-28T10:48:50;98060.75;;;16.80;64.64
54592;BME280;40488;48.558;18.150;2022-09-28T10:51:38;98052.34;;;17.09;64.38
54592;BME280;40488;48.558;18.150;2022-09-28T10:54:15;98063.31;;;17.28;64.10
54592;BME280;40488;48.558;18.150;2022-09-28T10:56:47;98058.00;;;17.31;64.07
54592;BME280;40488;48.558;18.150;2022-09-28T10:59:37;98062.47;;;17.61;63.93
54592;BME280;40488;48.558;18.150;2022-09-28T11:02:21;98064.75;;;17.34;64.00
54592;BME280;40488;48.558;18.150;2022-09-28T11:05:00;98051.94;;;17.17;64.53
54592;BME280;40488;48.558;18.150;2022-09-28T11:07:43;98043.16;;;16.88;64.56
54592;BME280;40488;48.558;18.150;2022-09-28T11:10:19;98040.31;;;16.77;64.54
54592;BME280;40488;48.558;18.150;2022-09-28T11:12:51;98035.31;;;16.74;64.55
54592;BME280;40488;48.558;18.150;2022-09-28T11:15:26;98032.28;;;16.66;64.25
54592;BME280;40488;48.558;18.150;2022-09-28T11:18:17;98024.56;;;16.66;64.67
54592;BME280;40488;48.558;18.150;2022-09-28T11:20:46;98024.81;;;16.61;64.37
54592;BME280;40488;48.558;18.150;2022-09-28T11:23:19;98008.84;;;16.55;64.79
54592;BME280;40488;48.558;18.150;2022-09-28T11:25:58;98019.16;;;16.55;64.98
54592;BME280;40488;48.558;18.150;2022-09-28T11:28:32;98019.81;;;16.58;65.54
54592;BME280;40488;48.558;18.150;2022-09-28T11:31:07;98016.31;;;16.59;65.40
54592;BME280;40488;48.558;18.150;2022-09-28T11:33:49;98018.31;;;16.54;65.87
54592;BME280;40488;48.558;18.150;2022-09-28T11:37:00;98011.47;;;16.53;66.36
54592;BME280;40488;48.558;18.150;2022-09-28T11:39:41;98008.22;;;16.50;66.06
54592;BME280;40488;48.558;18.150;2022-09-28T11:42:22;98015.63;;;16.56;65.86
54592;BME280;40488;48.558;18.150;2022-09-28T11:45:03;98000.72;;;16.62;65.00
54592;BME280;40488;48.558;18.150;2022-09-28T11:47:49;97998.38;;;16.58;65.06
54592;BME280;40488;48.558;18.150;2022-09-28T11:50:28;97999.28;;;16.57;65.64
54592;BME280;40488;48.558;18.150;2022-09-28T11:53:07;98003.97;;;16.49;65.77
54592;BME280;40488;48.558;18.150;2022-09-28T11:55:42;98005.34;;;16.56;66.48
54592;BME280;40488;48.558;18.150;2022-09-28T11:58:22;97995.13;;;16.54;66.59
54592;BME280;40488;48.558;18.150;2022-09-28T12:00:58;97995.47;;;16.47;66.50
54592;BME280;40488;48.558;18.150;2022-09-28T12:03:48;97983.97;;;16.37;66.65
54592;BME280;40488;48.558;18.150;2022-09-28T12:06:24;97979.75;;;16.36;66.84
54592;BME280;40488;48.558;18.150;2022-09-28T12:08:59;97982.50;;;16.33;66.10
54592;BME280;40488;48.558;18.150;2022-09-28T12:11:58;97968.88;;;16.31;65.11
54592;BME280;40488;48.558;18.150;2022-09-28T12:14:39;97965.44;;;16.30;64.54
54592;BME280;40488;48.558;18.150;2022-09-28T12:17:18;97965.34;;;16.32;64.02
54592;BME280;40488;48.558;18.150;2022-09-28T12:19:50;97965.22;;;16.35;64.02
54592;BME280;40488;48.558;18.150;2022-09-28T12:22:30;97965.31;;;16.49;63.24
54592;BME280;40488;48.558;18.150;2022-09-28T12:25:01;97964.81;;;16.59;62.65
54592;BME280;40488;48.558;18.150;2022-09-28T12:27:39;97956.84;;;16.64;62.42
54592;BME280;40488;48.558;18.150;2022-09-28T12:30:13;97961.25;;;16.62;61.46
54592;BME280;40488;48.558;18.150;2022-09-28T12:32:47;97950.34;;;16.57;61.69
54592;BME280;40488;48.558;18.150;2022-09-28T12:35:23;97968.63;;;16.52;63.04
54592;BME280;40488;48.558;18.150;2022-09-28T12:38:10;97960.41;;;16.44;63.87
54592;BME280;40488;48.558;18.150;2022-09-28T12:40:50;97966.41;;;16.45;64.32
54592;BME280;40488;48.558;18.150;2022-09-28T12:43:38;97954.44;;;16.44;64.24
54592;BME280;40488;48.558;18.150;2022-09-28T12:46:24;97948.63;;;16.40;63.95
54592;BME280;40488;48.558;18.150;2022-09-28T12:52:25;97959.91;;;16.38;63.99
54592;BME280;40488;48.558;18.150;2022-09-28T12:55:23;97969.00;;;16.28;63.76
54592;BME280;40488;48.558;18.150;2022-09-28T12:58:00;97967.75;;;16.19;63.53
54592;BME280;40488;48.558;18.150;2022-09-28T13:00:37;97969.63;;;16.16;63.31
54592;BME280;40488;48.558;18.150;2022-09-28T13:03:31;97971.78;;;16.07;63.36
54592;BME280;40488;48.558;18.150;2022-09-28T13:06:31;97966.84;;;16.03;63.15
54592;BME280;40488;48.558;18.150;2022-09-28T13:09:15;97972.06;;;16.01;63.19
54592;BME280;40488;48.558;18.150;2022-09-28T13:12:00;97969.88;;;16.11;63.24
54592;BME280;40488;48.558;18.150;2022-09-28T13:17:39;97967.19;;;16.30;63.65
54592;BME280;40488;48.558;18.150;2022-09-28T13:20:22;97968.72;;;16.34;63.46
54592;BME280;40488;48.558;18.150;2022-09-28T13:22:56;97976.34;;;16.35;63.08
54592;BME280;40488;48.558;18.150;2022-09-28T13:25:30;97977.19;;;16.36;63.73
54592;BME280;40488;48.558;18.150;2022-09-28T13:28:04;97974.84;;;16.31;63.62
54592;BME280;40488;48.558;18.150;2022-09-28T13:30:35;97983.38;;;16.32;63.88
54592;BME280;40488;48.558;18.150;2022-09-28T13:33:06;97977.34;;;16.33;63.75
54592;BME280;40488;48.558;18.150;2022-09-28T13:35:41;97985.22;;;16.30;63.45
54592;BME280;40488;48.558;18.150;2022-09-28T13:38:28;97986.56;;;16.20;63.30
54592;BME280;40488;48.558;18.150;2022-09-28T13:41:13;97976.59;;;16.14;63.90
54592;BME280;40488;48.558;18.150;2022-09-28T13:46:51;97985.69;;;16.03;64.78
54592;BME280;40488;48.558;18.150;2022-09-28T13:49:34;97983.72;;;15.91;65.45
54592;BME280;40488;48.558;18.150;2022-09-28T13:52:12;97988.63;;;15.96;65.26
54592;BME280;40488;48.558;18.150;2022-09-28T13:55:00;97995.56;;;15.95;65.69
54592;BME280;40488;48.558;18.150;2022-09-28T13:57:40;97987.97;;;15.92;65.81
54592;BME280;40488;48.558;18.150;2022-09-28T14:00:18;97996.44;;;15.94;65.92
54592;BME280;40488;48.558;18.150;2022-09-28T14:02:54;97997.50;;;15.90;66.09
54592;BME280;40488;48.558;18.150;2022-09-28T14:05:45;97989.72;;;15.92;66.05